Clam Gulch, Alaska
Current Conditions -  °F | °C
As of 3:36 PM on Monday 24 Nov 2014 (Local Time) from PASX Reporting Station
Overcast Overcast  
Wind Chill: 28°   Ceiling: 6000
Heat Index: 28°   Visibility: 10mi
Dew Point: 25°   Wind: 0mph
Humidity: 86%   Direction: NA
Pressure: 29.77"   Gusts: NA
Location:  60.25°N, 151.38°W
Report Text: PASX 250036Z AUTO 00000KT 10SM OVC060 M02/M04 A2977 RMK AO1
Loading
Personal Weather Stations






























Interactive Weather Map New forecast layout! Learn more

10-Day Weather Forecast

Advertisements
Track Severe Weather on mobile